Time;durP1;ratioP1;P1;durP2;ratioP2;P2;SDS_P1;SDS_P2;PMS_P1;PMS_P2;Temp;Humidity;BMP_temperature;BMP_pressure;BME280_temperature;BME280_humidity;BME280_pressure;Samples;Min_cycle;Max_cycle;Signal;HPM_P1;HPM_P2
2023/01/15 00:02:12;;;;;;;5.00;3.40;;;;;;;;;;4932415;29;20195;-60
2023/01/15 00:04:38;;;;;;;6.73;3.37;;;;;;;;;;4934087;29;20195;-60
2023/01/15 00:07:05;;;;;;;5.80;2.63;;;;;;;;;;4934008;29;20210;-60
2023/01/15 00:09:32;;;;;;;8.43;2.97;;;;;;;;;;4934151;29;20222;-60
2023/01/15 00:11:59;;;;;;;9.53;3.40;;;;;;;;;;4917035;29;20301;-60
2023/01/15 00:14:26;;;;;;;6.50;3.13;;;;;;;;;;4934064;29;20195;-60
2023/01/15 00:16:53;;;;;;;7.93;3.50;;;;;;;;;;4934396;29;20666;-60
2023/01/15 00:19:19;;;;;;;9.13;4.07;;;;;;;;;;4933844;29;20203;-60
2023/01/15 00:21:46;;;;;;;6.63;3.23;;;;;;;;;;4934040;29;20294;-60
2023/01/15 00:29:45;;;;;;;8.07;3.23;;;;;;;;;;4933377;29;20502;-61
2023/01/15 00:32:11;;;;;;;7.77;3.77;;;;;;;;;;4933085;29;20241;-60
2023/01/15 00:34:38;;;;;;;7.27;3.30;;;;;;;;;;4933542;29;20290;-60
2023/01/15 00:37:05;;;;;;;6.37;3.50;;;;;;;;;;4933018;29;20198;-60
2023/01/15 00:39:33;;;;;;;6.47;2.43;;;;;;;;;;4916370;29;20187;-61
2023/01/15 00:42:00;;;;;;;7.47;3.23;;;;;;;;;;4928006;29;20191;-60
2023/01/15 00:44:26;;;;;;;7.10;2.47;;;;;;;;;;4933444;29;20201;-60
2023/01/15 00:46:53;;;;;;;8.27;3.23;;;;;;;;;;4933906;29;20190;-60
2023/01/15 00:49:20;;;;;;;4.33;2.47;;;;;;;;;;4933568;29;20222;-60
2023/01/15 00:51:48;;;;;;;8.67;3.30;;;;;;;;;;4916101;29;20714;-60
2023/01/15 00:54:16;;;;;;;7.70;3.60;;;;;;;;;;4916120;29;20218;-62
2023/01/15 00:56:42;;;;;;;6.07;3.30;;;;;;;;;;4932085;29;20333;-61
2023/01/15 00:59:09;;;;;;;9.83;3.30;;;;;;;;;;4916411;29;20211;-60
2023/01/15 01:01:35;;;;;;;8.07;2.63;;;;;;;;;;4932830;29;20199;-60
2023/01/15 01:04:05;;;;;;;7.23;3.20;;;;;;;;;;4933335;29;20187;-60
2023/01/15 01:06:33;;;;;;;7.00;3.20;;;;;;;;;;4932842;29;20197;-60
2023/01/15 01:09:03;;;;;;;5.63;2.17;;;;;;;;;;4932968;29;20222;-60
2023/01/15 01:11:33;;;;;;;6.20;2.93;;;;;;;;;;4932227;29;20546;-60
2023/01/15 01:14:01;;;;;;;6.27;2.30;;;;;;;;;;4916632;29;20230;-60
2023/01/15 01:16:30;;;;;;;4.83;2.00;;;;;;;;;;4931419;29;20289;-60
2023/01/15 01:18:57;;;;;;;3.27;2.10;;;;;;;;;;4932721;29;20186;-60
2023/01/15 01:21:24;;;;;;;6.60;3.30;;;;;;;;;;4915436;29;20194;-60
2023/01/15 01:23:50;;;;;;;4.47;2.60;;;;;;;;;;4932164;29;20205;-61
2023/01/15 01:26:17;;;;;;;4.60;2.30;;;;;;;;;;4932199;29;20191;-60
2023/01/15 01:29:03;;;;;;;9.60;2.60;;;;;;;;;;4899736;29;20227;-60
2023/01/15 01:31:31;;;;;;;4.37;2.37;;;;;;;;;;4914624;29;20331;-60
2023/01/15 01:34:17;;;;;;;5.53;3.03;;;;;;;;;;4932279;29;20249;-60
2023/01/15 01:36:43;;;;;;;5.77;2.20;;;;;;;;;;4932029;29;20286;-60
2023/01/15 01:39:14;;;;;;;3.13;1.77;;;;;;;;;;4932178;29;20662;-60
2023/01/15 01:41:41;;;;;;;8.33;2.40;;;;;;;;;;4932273;29;20202;-60
2023/01/15 02:16:16;;;;;;;3.83;1.87;;;;;;;;;;4931219;29;20299;-60
2023/01/15 02:18:49;;;;;;;3.73;2.03;;;;;;;;;;4932042;29;20199;-60
2023/01/15 02:21:23;;;;;;;3.10;1.67;;;;;;;;;;4914472;29;20205;-61
2023/01/15 02:23:56;;;;;;;4.20;2.23;;;;;;;;;;4899083;29;20224;-60
2023/01/15 02:26:23;;;;;;;6.07;2.47;;;;;;;;;;4914355;29;20701;-60
2023/01/15 02:28:50;;;;;;;3.70;1.50;;;;;;;;;;4929863;29;20594;-60
2023/01/15 02:31:23;;;;;;;5.83;2.20;;;;;;;;;;4931327;29;20202;-60
2023/01/15 02:33:55;;;;;;;4.27;2.20;;;;;;;;;;4899863;29;20191;-61
2023/01/15 02:36:22;;;;;;;2.63;1.40;;;;;;;;;;4922650;29;20206;-60
2023/01/15 02:38:50;;;;;;;5.77;1.80;;;;;;;;;;4918321;29;20199;-60
2023/01/15 02:41:35;;;;;;;3.90;1.50;;;;;;;;;;4935170;29;20189;-60
2023/01/15 02:44:03;;;;;;;2.80;1.30;;;;;;;;;;4918724;29;20199;-60
2023/01/15 02:46:32;;;;;;;6.10;1.73;;;;;;;;;;4903205;29;20289;-60
2023/01/15 02:49:01;;;;;;;7.90;1.83;;;;;;;;;;4917776;29;20281;-61
2023/01/15 02:51:35;;;;;;;5.60;2.10;;;;;;;;;;4933959;29;20290;-60
2023/01/15 02:54:20;;;;;;;3.93;1.73;;;;;;;;;;4918117;29;20269;-61
2023/01/15 02:56:49;;;;;;;3.10;1.80;;;;;;;;;;4902714;29;20191;-60
2023/01/15 02:59:20;;;;;;;3.07;1.97;;;;;;;;;;4902597;29;20187;-60
2023/01/15 03:01:58;;;;;;;2.67;1.40;;;;;;;;;;4918313;29;20246;-60
2023/01/15 03:04:45;;;;;;;3.47;1.70;;;;;;;;;;4920482;29;20638;-60
2023/01/15 03:07:22;;;;;;;3.03;1.60;;;;;;;;;;4918455;29;20726;-60
2023/01/15 03:09:49;;;;;;;5.70;2.17;;;;;;;;;;4902564;29;20198;-60
2023/01/15 03:12:16;;;;;;;3.87;1.50;;;;;;;;;;4901722;29;20678;-60
2023/01/15 03:14:55;;;;;;;3.53;2.00;;;;;;;;;;4929067;29;20199;-60
2023/01/15 03:17:46;;;;;;;4.63;1.50;;;;;;;;;;4930503;29;20237;-60
2023/01/15 03:20:19;;;;;;;1.37;0.87;;;;;;;;;;4926425;29;20243;-60
2023/01/15 03:23:07;;;;;;;2.93;1.17;;;;;;;;;;4927218;29;20175;-60
2023/01/15 03:25:41;;;;;;;4.57;1.97;;;;;;;;;;4917966;29;20195;-60
2023/01/15 03:28:26;;;;;;;4.00;2.10;;;;;;;;;;4903914;29;20226;-61
2023/01/15 03:30:53;;;;;;;2.13;1.20;;;;;;;;;;4917484;29;20214;-60
2023/01/15 03:33:38;;;;;;;3.67;1.30;;;;;;;;;;4917423;29;20257;-60
2023/01/15 03:36:11;;;;;;;3.47;1.80;;;;;;;;;;4917199;29;20250;-61
2023/01/15 03:38:59;;;;;;;1.23;0.90;;;;;;;;;;4932499;29;20706;-60
2023/01/15 03:42:31;;;;;;;5.40;1.50;;;;;;;;;;4845934;29;20313;-61
2023/01/15 03:45:07;;;;;;;3.10;1.63;;;;;;;;;;4901435;29;20667;-61
2023/01/15 03:47:53;;;;;;;2.37;1.27;;;;;;;;;;4932689;29;20231;-60
2023/01/15 03:50:38;;;;;;;3.30;1.00;;;;;;;;;;4916842;29;20176;-61
2023/01/15 03:53:09;;;;;;;4.23;2.10;;;;;;;;;;4934494;29;20194;-60
2023/01/15 03:55:42;;;;;;;3.10;1.80;;;;;;;;;;4917479;29;20598;-60
2023/01/15 03:58:12;;;;;;;3.23;1.77;;;;;;;;;;4932940;29;20733;-60
2023/01/15 04:00:45;;;;;;;3.23;2.00;;;;;;;;;;4916863;29;20199;-60
2023/01/15 04:03:13;;;;;;;4.10;1.47;;;;;;;;;;4926953;29;20643;-61
2023/01/15 04:05:40;;;;;;;2.83;1.80;;;;;;;;;;4917015;29;20195;-60
2023/01/15 04:08:07;;;;;;;3.63;1.70;;;;;;;;;;4933368;29;20582;-60
2023/01/15 04:10:34;;;;;;;3.87;1.57;;;;;;;;;;4933025;29;20707;-61
2023/01/15 04:13:03;;;;;;;1.50;1.40;;;;;;;;;;4917361;29;20206;-60
2023/01/15 04:15:30;;;;;;;4.03;1.60;;;;;;;;;;4916890;29;20223;-60
2023/01/15 04:17:57;;;;;;;5.70;2.10;;;;;;;;;;4932301;29;20719;-60
2023/01/15 04:20:26;;;;;;;2.07;0.90;;;;;;;;;;4932808;29;20262;-60
2023/01/15 04:22:53;;;;;;;3.67;1.83;;;;;;;;;;4932774;29;20198;-61
2023/01/15 04:25:20;;;;;;;1.53;1.07;;;;;;;;;;4934151;29;20615;-60
2023/01/15 04:28:03;;;;;;;3.90;1.60;;;;;;;;;;4933643;29;20229;-60
2023/01/15 04:30:30;;;;;;;4.00;1.37;;;;;;;;;;4932902;29;20195;-61
2023/01/15 04:32:57;;;;;;;1.90;1.13;;;;;;;;;;4921268;29;20199;-61
2023/01/15 04:35:23;;;;;;;2.13;1.20;;;;;;;;;;4933244;29;20258;-63
2023/01/15 04:37:54;;;;;;;2.37;1.00;;;;;;;;;;4933730;29;20191;-62
2023/01/15 04:45:52;;;;;;;2.57;1.03;;;;;;;;;;4933499;29;20190;-63
2023/01/15 04:48:19;;;;;;;2.40;1.00;;;;;;;;;;4932866;29;20218;-62
2023/01/15 04:50:45;;;;;;;1.70;1.07;;;;;;;;;;4932208;29;20254;-62
2023/01/15 04:53:29;;;;;;;1.30;0.60;;;;;;;;;;4918684;29;20270;-61
2023/01/15 04:56:00;;;;;;;0.87;0.70;;;;;;;;;;4916033;29;20726;-61
2023/01/15 04:58:44;;;;;;;0.73;0.70;;;;;;;;;;4933391;29;20187;-61
2023/01/15 05:01:15;;;;;;;2.07;1.00;;;;;;;;;;4933487;29;20264;-61
2023/01/15 05:03:41;;;;;;;1.13;0.90;;;;;;;;;;4932592;29;20245;-61
2023/01/15 05:06:08;;;;;;;3.53;1.00;;;;;;;;;;4932159;29;20615;-62
2023/01/15 05:08:35;;;;;;;2.43;1.00;;;;;;;;;;4933001;29;20269;-61
2023/01/15 05:11:02;;;;;;;1.43;0.90;;;;;;;;;;4932830;29;20249;-61
2023/01/15 05:13:31;;;;;;;3.40;0.83;;;;;;;;;;4932732;29;20198;-61
2023/01/15 05:16:14;;;;;;;0.93;0.80;;;;;;;;;;4932973;29;20198;-61
2023/01/15 05:18:59;;;;;;;2.43;1.20;;;;;;;;;;4932914;29;20175;-61
2023/01/15 05:21:30;;;;;;;1.73;0.80;;;;;;;;;;4932887;29;20222;-61
2023/01/15 05:24:15;;;;;;;1.50;1.07;;;;;;;;;;4932919;29;20183;-62
2023/01/15 05:26:41;;;;;;;2.10;1.13;;;;;;;;;;4932614;29;20961;-62
2023/01/15 05:29:08;;;;;;;2.20;1.30;;;;;;;;;;4932565;29;20532;-61
2023/01/15 05:31:35;;;;;;;2.30;0.90;;;;;;;;;;4933119;29;20207;-62
2023/01/15 05:34:02;;;;;;;1.80;1.10;;;;;;;;;;4932513;29;20882;-61
2023/01/15 05:36:29;;;;;;;0.90;0.73;;;;;;;;;;4932802;29;20186;-62
2023/01/15 05:39:00;;;;;;;1.90;1.40;;;;;;;;;;4915815;29;20198;-61
2023/01/15 05:44:13;;;;;;;2.27;1.37;;;;;;;;;;4932584;29;20195;-62
2023/01/15 05:46:40;;;;;;;1.53;1.37;;;;;;;;;;4915981;29;20194;-61
2023/01/15 05:49:08;;;;;;;1.93;1.17;;;;;;;;;;4932518;29;20214;-62
2023/01/15 05:51:37;;;;;;;3.67;1.90;;;;;;;;;;4932555;29;20186;-62
2023/01/15 05:54:04;;;;;;;1.83;1.30;;;;;;;;;;4932558;29;20198;-61
2023/01/15 05:56:33;;;;;;;2.13;1.20;;;;;;;;;;4932226;29;20191;-62
2023/01/15 05:59:00;;;;;;;2.47;1.63;;;;;;;;;;4932717;29;20740;-62
2023/01/15 06:01:26;;;;;;;2.57;1.60;;;;;;;;;;4932465;29;20194;-61
2023/01/15 06:03:56;;;;;;;2.50;1.63;;;;;;;;;;4915057;29;20219;-62
2023/01/15 06:06:23;;;;;;;4.40;2.10;;;;;;;;;;4932230;29;20700;-62
2023/01/15 06:08:49;;;;;;;2.30;1.33;;;;;;;;;;4932359;29;20218;-61
2023/01/15 06:11:16;;;;;;;1.40;1.30;;;;;;;;;;4932043;29;20238;-62
2023/01/15 06:13:43;;;;;;;1.90;1.17;;;;;;;;;;4932691;29;20611;-62
2023/01/15 06:16:09;;;;;;;2.03;1.40;;;;;;;;;;4932317;29;20250;-62
2023/01/15 06:18:39;;;;;;;1.90;1.13;;;;;;;;;;4932367;29;20191;-62
2023/01/15 06:21:06;;;;;;;2.97;1.70;;;;;;;;;;4932221;29;20595;-62
2023/01/15 06:23:35;;;;;;;4.03;1.60;;;;;;;;;;4932375;29;20253;-62
2023/01/15 06:26:06;;;;;;;4.77;2.20;;;;;;;;;;4932172;29;20255;-62
2023/01/15 06:28:33;;;;;;;3.07;1.87;;;;;;;;;;4915558;29;20587;-62
2023/01/15 06:31:02;;;;;;;2.00;1.40;;;;;;;;;;4932290;29;20194;-61
2023/01/15 06:33:29;;;;;;;1.80;1.40;;;;;;;;;;4932141;29;20203;-62
2023/01/15 06:35:56;;;;;;;1.20;1.10;;;;;;;;;;4932193;29;20194;-61
2023/01/15 06:38:22;;;;;;;1.47;1.07;;;;;;;;;;4932033;29;20187;-62
2023/01/15 06:40:49;;;;;;;1.23;0.90;;;;;;;;;;4932218;29;20588;-61
2023/01/15 06:47:19;;;;;;;1.57;0.90;;;;;;;;;;4931951;29;20220;-61
2023/01/15 06:48:50;;;;;;;0.63;0.30;;;;;;;;;;4931934;29;20701;-61
2023/01/15 06:51:19;;;;;;;1.33;0.90;;;;;;;;;;4932032;29;20196;-61
2023/01/15 06:53:45;;;;;;;1.10;0.87;;;;;;;;;;4931982;29;20663;-61
2023/01/15 06:56:16;;;;;;;0.97;0.70;;;;;;;;;;4931747;29;20199;-61
2023/01/15 06:58:42;;;;;;;1.00;0.80;;;;;;;;;;4932265;29;20213;-61
2023/01/15 07:01:09;;;;;;;1.87;0.90;;;;;;;;;;4932010;29;20194;-61
2023/01/15 07:03:36;;;;;;;0.80;0.80;;;;;;;;;;4931842;29;20206;-61
2023/01/15 07:06:07;;;;;;;1.10;0.80;;;;;;;;;;4931857;29;20264;-61
2023/01/15 07:08:34;;;;;;;1.40;1.00;;;;;;;;;;4915127;29;20211;-62
2023/01/15 07:11:01;;;;;;;1.60;0.53;;;;;;;;;;4932027;29;20191;-62
2023/01/15 07:13:28;;;;;;;1.30;1.00;;;;;;;;;;4931947;29;20611;-62
2023/01/15 07:15:56;;;;;;;1.20;1.00;;;;;;;;;;4934533;29;20203;-62
2023/01/15 07:18:40;;;;;;;1.87;0.90;;;;;;;;;;4935211;29;20273;-62
2023/01/15 07:21:07;;;;;;;1.00;0.90;;;;;;;;;;4935445;29;20243;-62
2023/01/15 07:23:51;;;;;;;1.07;0.83;;;;;;;;;;4935397;29;20171;-62
2023/01/15 07:26:18;;;;;;;1.10;1.00;;;;;;;;;;4934955;29;20242;-62
2023/01/15 07:29:02;;;;;;;1.13;1.00;;;;;;;;;;4920601;29;20226;-62
2023/01/15 07:31:29;;;;;;;1.30;1.20;;;;;;;;;;4935003;29;20191;-62
2023/01/15 07:33:56;;;;;;;2.00;1.30;;;;;;;;;;4935252;29;20707;-62
2023/01/15 07:36:23;;;;;;;2.17;0.90;;;;;;;;;;4934808;29;20587;-62
2023/01/15 07:38:49;;;;;;;1.77;0.70;;;;;;;;;;4935220;29;20191;-62
2023/01/15 07:49:54;;;;;;;0.90;0.50;;;;;;;;;;4920804;29;20222;-62
2023/01/15 07:52:21;;;;;;;0.80;0.50;;;;;;;;;;4934701;29;20354;-62
2023/01/15 07:54:48;;;;;;;1.00;0.50;;;;;;;;;;4934766;29;20325;-62
2023/01/15 07:57:20;;;;;;;1.40;0.70;;;;;;;;;;4901860;29;20212;-62
2023/01/15 07:59:47;;;;;;;1.47;0.93;;;;;;;;;;4917584;29;20674;-62
2023/01/15 08:02:13;;;;;;;2.40;1.10;;;;;;;;;;4934843;29;20186;-62
2023/01/15 08:04:40;;;;;;;2.10;1.40;;;;;;;;;;4934640;29;20207;-62
2023/01/15 08:07:07;;;;;;;2.40;1.43;;;;;;;;;;4934778;29;20191;-62
2023/01/15 08:09:34;;;;;;;2.13;1.00;;;;;;;;;;4934279;29;20218;-62
2023/01/15 08:17:34;;;;;;;2.20;1.10;;;;;;;;;;4934186;29;20274;-62
2023/01/15 08:20:08;;;;;;;2.43;1.30;;;;;;;;;;4934393;29;20187;-62
2023/01/15 08:22:37;;;;;;;2.40;1.37;;;;;;;;;;4934287;29;20205;-62
2023/01/15 08:25:04;;;;;;;2.10;0.93;;;;;;;;;;4933571;29;20246;-62
2023/01/15 08:27:30;;;;;;;2.00;1.10;;;;;;;;;;4933364;29;20219;-62
2023/01/15 08:29:58;;;;;;;2.40;1.30;;;;;;;;;;4934097;29;20218;-62
2023/01/15 08:32:25;;;;;;;1.93;1.13;;;;;;;;;;4933895;29;20562;-62
2023/01/15 08:34:52;;;;;;;1.90;0.90;;;;;;;;;;4934339;29;20197;-62
2023/01/15 08:37:18;;;;;;;2.67;1.10;;;;;;;;;;4933757;29;20599;-62
2023/01/15 08:39:45;;;;;;;1.97;1.30;;;;;;;;;;4933863;29;20195;-62
2023/01/15 08:42:12;;;;;;;2.00;1.20;;;;;;;;;;4916636;29;20222;-62
2023/01/15 08:44:38;;;;;;;7.80;1.47;;;;;;;;;;4933793;29;20638;-62
2023/01/15 08:47:05;;;;;;;2.50;1.07;;;;;;;;;;4933872;29;20575;-62
2023/01/15 08:49:32;;;;;;;2.10;1.07;;;;;;;;;;4933705;29;20222;-62
2023/01/15 08:51:59;;;;;;;1.60;1.17;;;;;;;;;;4933447;29;20689;-62
2023/01/15 08:54:26;;;;;;;3.47;1.00;;;;;;;;;;4933552;29;20214;-62
2023/01/15 08:56:53;;;;;;;4.90;1.17;;;;;;;;;;4933239;29;20195;-62
2023/01/15 08:59:20;;;;;;;3.70;1.47;;;;;;;;;;4933219;29;20699;-62
2023/01/15 09:01:46;;;;;;;2.30;1.20;;;;;;;;;;4930934;29;20274;-62
2023/01/15 09:04:14;;;;;;;4.10;1.47;;;;;;;;;;4933553;29;20710;-62
2023/01/15 09:06:40;;;;;;;3.87;1.47;;;;;;;;;;4933425;29;20454;-62
2023/01/15 09:09:07;;;;;;;4.67;1.30;;;;;;;;;;4916669;29;20245;-63
2023/01/15 09:11:35;;;;;;;3.40;1.33;;;;;;;;;;4934044;29;20620;-62
2023/01/15 09:14:01;;;;;;;3.97;1.63;;;;;;;;;;4933953;29;20194;-62
2023/01/15 09:16:30;;;;;;;2.83;1.63;;;;;;;;;;4933965;29;20293;-62
2023/01/15 09:18:57;;;;;;;3.30;2.03;;;;;;;;;;4933776;29;20195;-62
2023/01/15 09:21:24;;;;;;;4.27;2.60;;;;;;;;;;4933843;29;20203;-62
2023/01/15 09:23:51;;;;;;;6.63;2.70;;;;;;;;;;4933600;29;20665;-62
2023/01/15 09:26:30;;;;;;;6.27;2.87;;;;;;;;;;4933291;29;20199;-62
2023/01/15 09:28:57;;;;;;;8.27;3.23;;;;;;;;;;4932508;29;20698;-62
2023/01/15 09:31:24;;;;;;;5.07;2.83;;;;;;;;;;4932017;29;20289;-62
2023/01/15 09:33:54;;;;;;;4.63;2.20;;;;;;;;;;4933463;29;20206;-62
2023/01/15 09:36:28;;;;;;;3.23;1.83;;;;;;;;;;4933375;29;20204;-62
2023/01/15 09:38:55;;;;;;;7.27;2.10;;;;;;;;;;4932542;29;20215;-62
2023/01/15 09:44:07;;;;;;;4.13;1.87;;;;;;;;;;4931905;29;20218;-63
2023/01/15 09:47:04;;;;;;;5.77;2.60;;;;;;;;;;4933432;29;20178;-62
2023/01/15 09:49:40;;;;;;;5.20;2.27;;;;;;;;;;4933603;29;20230;-62
2023/01/15 09:52:13;;;;;;;4.57;2.33;;;;;;;;;;4931980;29;20233;-63
2023/01/15 09:54:43;;;;;;;3.10;2.33;;;;;;;;;;4919984;29;20566;-62
2023/01/15 09:57:27;;;;;;;6.37;2.00;;;;;;;;;;4931808;29;20186;-62
2023/01/15 09:59:59;;;;;;;5.60;2.10;;;;;;;;;;4932398;29;20187;-62
2023/01/15 10:02:28;;;;;;;4.87;2.40;;;;;;;;;;4933126;29;20554;-63
2023/01/15 10:05:00;;;;;;;4.70;2.40;;;;;;;;;;4932229;29;20226;-62
2023/01/15 10:07:50;;;;;;;4.77;2.20;;;;;;;;;;4932167;29;20187;-62
2023/01/15 10:10:17;;;;;;;5.60;2.93;;;;;;;;;;4931673;29;20214;-62
2023/01/15 10:12:44;;;;;;;3.07;2.43;;;;;;;;;;4933365;29;20195;-62
2023/01/15 10:15:29;;;;;;;5.20;2.37;;;;;;;;;;4919570;29;20286;-62
2023/01/15 10:17:57;;;;;;;6.30;2.70;;;;;;;;;;4932355;29;20203;-64
2023/01/15 10:20:42;;;;;;;5.63;2.73;;;;;;;;;;4931620;29;20246;-63
2023/01/15 10:23:27;;;;;;;6.03;3.00;;;;;;;;;;4932896;29;20201;-63
2023/01/15 10:25:56;;;;;;;5.97;3.13;;;;;;;;;;4932979;29;20191;-63
2023/01/15 10:29:02;;;;;;;5.60;3.10;;;;;;;;;;4932204;29;20222;-63
2023/01/15 10:31:52;;;;;;;2.63;1.47;;;;;;;;;;4932672;29;20282;-63
2023/01/15 10:34:26;;;;;;;5.23;2.63;;;;;;;;;;4904114;29;20207;-63
2023/01/15 10:37:13;;;;;;;4.50;2.33;;;;;;;;;;4931841;29;20689;-63
2023/01/15 10:40:16;;;;;;;6.30;2.60;;;;;;;;;;4910759;29;20198;-63
2023/01/15 10:42:49;;;;;;;3.73;1.70;;;;;;;;;;4921981;29;20191;-62
2023/01/15 10:45:23;;;;;;;3.73;1.93;;;;;;;;;;4931333;29;20195;-63
2023/01/15 10:47:52;;;;;;;4.60;2.30;;;;;;;;;;4931358;29;20438;-62
2023/01/15 10:50:23;;;;;;;9.27;3.43;;;;;;;;;;4936543;29;20294;-63
2023/01/15 10:52:51;;;;;;;8.23;3.60;;;;;;;;;;4936595;29;20218;-63
2023/01/15 10:55:20;;;;;;;7.57;3.57;;;;;;;;;;4936592;29;20197;-63
2023/01/15 10:57:59;;;;;;;7.60;3.10;;;;;;;;;;4935226;29;20297;-62
2023/01/15 11:00:36;;;;;;;7.57;3.10;;;;;;;;;;4936349;29;20198;-62
2023/01/15 11:03:21;;;;;;;4.57;1.77;;;;;;;;;;4936319;29;20186;-61
2023/01/15 11:05:48;;;;;;;5.33;2.30;;;;;;;;;;4919101;29;20191;-60
2023/01/15 11:08:29;;;;;;;5.23;2.50;;;;;;;;;;4918617;29;20199;-62
2023/01/15 11:11:17;;;;;;;6.53;2.83;;;;;;;;;;4935426;29;20292;-62
2023/01/15 11:19:39;;;;;;;5.13;2.77;;;;;;;;;;4935485;29;20199;-62
2023/01/15 11:22:10;;;;;;;5.93;3.60;;;;;;;;;;4923148;29;20242;-62
2023/01/15 11:24:37;;;;;;;6.00;3.17;;;;;;;;;;4934428;29;20439;-62
2023/01/15 11:27:04;;;;;;;5.00;2.40;;;;;;;;;;4934880;29;20183;-62
2023/01/15 11:29:32;;;;;;;3.43;2.20;;;;;;;;;;4934696;29;20211;-62
2023/01/15 11:32:00;;;;;;;5.23;2.20;;;;;;;;;;4918638;29;20201;-62
2023/01/15 11:34:27;;;;;;;2.90;1.90;;;;;;;;;;4935308;29;20261;-63
2023/01/15 11:37:03;;;;;;;3.83;2.47;;;;;;;;;;4929837;29;20439;-61
2023/01/15 11:39:30;;;;;;;6.03;2.57;;;;;;;;;;4920765;29;20472;-64
2023/01/15 11:50:49;;;;;;;4.10;2.57;;;;;;;;;;4923499;29;20218;-64
2023/01/15 11:53:17;;;;;;;3.57;1.80;;;;;;;;;;4920386;29;20293;-65
2023/01/15 11:55:58;;;;;;;4.60;1.80;;;;;;;;;;4923452;29;20746;-62
2023/01/15 11:58:26;;;;;;;3.27;1.53;;;;;;;;;;4906466;29;20506;-62
2023/01/15 12:00:55;;;;;;;4.73;2.57;;;;;;;;;;4922230;29;20290;-63
2023/01/15 12:03:24;;;;;;;3.03;1.60;;;;;;;;;;4904928;29;20209;-64
2023/01/15 12:05:59;;;;;;;2.33;1.37;;;;;;;;;;4896337;29;20246;-64
2023/01/15 12:08:31;;;;;;;3.60;1.60;;;;;;;;;;4915027;29;20228;-66
2023/01/15 12:11:04;;;;;;;3.23;1.60;;;;;;;;;;4909497;29;20493;-64
2023/01/15 12:14:00;;;;;;;4.30;1.73;;;;;;;;;;4931956;29;20504;-63
2023/01/15 12:16:27;;;;;;;4.13;1.90;;;;;;;;;;4922789;29;20206;-62
2023/01/15 12:18:58;;;;;;;4.53;2.10;;;;;;;;;;4923690;29;21165;-63
2023/01/15 12:21:29;;;;;;;4.00;2.20;;;;;;;;;;4924787;29;20549;-64
2023/01/15 12:23:59;;;;;;;5.47;2.40;;;;;;;;;;4922848;29;20529;-63
2023/01/15 12:26:29;;;;;;;5.70;2.93;;;;;;;;;;4913453;29;20235;-63
2023/01/15 12:29:01;;;;;;;6.40;3.23;;;;;;;;;;4919645;29;20481;-63
2023/01/15 12:31:34;;;;;;;5.63;3.20;;;;;;;;;;4922392;29;20490;-61
2023/01/15 12:34:20;;;;;;;8.27;3.00;;;;;;;;;;4923977;29;20932;-63
2023/01/15 12:36:54;;;;;;;7.23;3.43;;;;;;;;;;4923678;28;20440;-63
2023/01/15 12:39:26;;;;;;;5.87;2.83;;;;;;;;;;4914318;29;20250;-62
2023/01/15 12:47:28;;;;;;;8.13;3.43;;;;;;;;;;4952868;29;21119;-61
2023/01/15 12:50:21;;;;;;;8.60;3.77;;;;;;;;;;4952684;29;20464;-61
2023/01/15 12:52:49;;;;;;;6.20;2.70;;;;;;;;;;4952918;29;20445;-62
2023/01/15 12:55:18;;;;;;;6.33;2.53;;;;;;;;;;4934447;28;20427;-62
2023/01/15 12:57:46;;;;;;;5.40;2.53;;;;;;;;;;4922643;29;20438;-64
2023/01/15 13:00:26;;;;;;;4.93;2.30;;;;;;;;;;4931390;29;20449;-62
2023/01/15 13:03:02;;;;;;;4.00;2.10;;;;;;;;;;4920079;29;20464;-62
2023/01/15 13:05:30;;;;;;;3.97;1.97;;;;;;;;;;4912813;29;20648;-62
2023/01/15 13:08:12;;;;;;;5.43;2.73;;;;;;;;;;4919119;29;20446;-64
2023/01/15 13:10:39;;;;;;;6.23;2.63;;;;;;;;;;4914305;29;20538;-62
2023/01/15 13:13:16;;;;;;;6.90;2.90;;;;;;;;;;4912846;29;20195;-62
2023/01/15 13:16:04;;;;;;;5.83;2.70;;;;;;;;;;4913887;29;20530;-63
2023/01/15 13:18:49;;;;;;;3.17;1.30;;;;;;;;;;4914138;29;21133;-63
2023/01/15 13:21:16;;;;;;;8.87;3.47;;;;;;;;;;4914186;29;20544;-62
2023/01/15 13:24:19;;;;;;;7.70;3.20;;;;;;;;;;4912745;29;20195;-63
2023/01/15 13:27:00;;;;;;;8.73;3.97;;;;;;;;;;4836912;29;20625;-63
2023/01/15 13:29:46;;;;;;;8.20;3.20;;;;;;;;;;4906456;29;20461;-62
2023/01/15 13:32:22;;;;;;;7.20;3.90;;;;;;;;;;4914346;29;20474;-62
2023/01/15 13:35:19;;;;;;;10.90;4.10;;;;;;;;;;4913977;29;20428;-63
2023/01/15 13:37:48;;;;;;;5.83;3.53;;;;;;;;;;4926179;29;20450;-62
2023/01/15 13:40:17;;;;;;;7.77;3.00;;;;;;;;;;4932129;29;20178;-62
2023/01/15 13:42:45;;;;;;;6.40;2.50;;;;;;;;;;4932249;29;20230;-63
2023/01/15 13:45:31;;;;;;;8.03;3.17;;;;;;;;;;4932354;29;20680;-62
2023/01/15 13:48:05;;;;;;;6.97;4.00;;;;;;;;;;4931640;29;20450;-62
2023/01/15 13:50:34;;;;;;;4.23;2.03;;;;;;;;;;4932554;29;20772;-62
2023/01/15 13:53:12;;;;;;;6.73;2.90;;;;;;;;;;4931604;29;20195;-62
2023/01/15 13:55:39;;;;;;;6.77;3.00;;;;;;;;;;4931497;29;20199;-63
2023/01/15 13:58:16;;;;;;;8.23;2.90;;;;;;;;;;4932314;29;20427;-63
2023/01/15 14:00:42;;;;;;;7.70;3.20;;;;;;;;;;4930964;29;20187;-63
2023/01/15 14:03:28;;;;;;;6.27;2.67;;;;;;;;;;4932399;29;21020;-61
2023/01/15 14:05:59;;;;;;;4.00;2.20;;;;;;;;;;4932322;29;20450;-62
2023/01/15 14:08:27;;;;;;;6.07;3.03;;;;;;;;;;4932526;29;20438;-63
2023/01/15 14:10:54;;;;;;;4.43;2.63;;;;;;;;;;4929334;29;20231;-62
2023/01/15 14:13:45;;;;;;;6.07;2.80;;;;;;;;;;4930362;29;20568;-63
2023/01/15 14:16:38;;;;;;;5.13;2.63;;;;;;;;;;4932443;29;20445;-63
2023/01/15 14:19:24;;;;;;;6.97;3.10;;;;;;;;;;4914148;29;20441;-62
2023/01/15 14:21:55;;;;;;;4.27;1.40;;;;;;;;;;4942594;29;20190;-63
2023/01/15 14:24:31;;;;;;;5.40;2.60;;;;;;;;;;4935917;29;20463;-64
2023/01/15 14:27:11;;;;;;;5.47;2.53;;;;;;;;;;4936842;28;20218;-60
2023/01/15 14:30:01;;;;;;;4.57;2.00;;;;;;;;;;4918002;29;20662;-63
2023/01/15 14:32:34;;;;;;;4.67;2.80;;;;;;;;;;4920458;29;20442;-62
2023/01/15 14:35:01;;;;;;;5.40;2.50;;;;;;;;;;4937865;28;20454;-63
2023/01/15 14:37:32;;;;;;;4.57;1.93;;;;;;;;;;4934552;28;20449;-61
2023/01/15 14:39:59;;;;;;;4.80;1.77;;;;;;;;;;4930638;29;21217;-61
2023/01/15 14:43:28;;;;;;;11.07;2.47;;;;;;;;;;4942861;28;20261;-62
2023/01/15 14:45:24;;;;;;;2.87;1.53;;;;;;;;;;4924640;29;21016;-63
2023/01/15 14:47:52;;;;;;;4.07;1.37;;;;;;;;;;4934703;28;20999;-62
2023/01/15 14:50:24;;;;;;;6.20;2.60;;;;;;;;;;4939281;29;20452;-61
2023/01/15 14:52:51;;;;;;;6.93;2.80;;;;;;;;;;4933149;29;20298;-63
2023/01/15 14:55:19;;;;;;;2.87;1.87;;;;;;;;;;4919242;29;20537;-63
2023/01/15 14:58:02;;;;;;;6.63;2.40;;;;;;;;;;4920738;29;20226;-62
2023/01/15 15:00:36;;;;;;;4.60;1.93;;;;;;;;;;4923063;29;20187;-61
2023/01/15 15:03:25;;;;;;;6.03;2.63;;;;;;;;;;4936662;28;20238;-62
2023/01/15 15:05:52;;;;;;;4.47;2.37;;;;;;;;;;4937693;29;20202;-61
2023/01/15 15:08:19;;;;;;;8.03;2.80;;;;;;;;;;4919676;29;20199;-62
2023/01/15 15:10:47;;;;;;;2.27;1.23;;;;;;;;;;4936346;29;20223;-62
2023/01/15 15:13:26;;;;;;;4.10;2.13;;;;;;;;;;4906205;29;20361;-65
2023/01/15 15:16:25;;;;;;;4.43;2.47;;;;;;;;;;4936858;29;20818;-64
2023/01/15 15:19:00;;;;;;;5.80;3.20;;;;;;;;;;4894863;29;20458;-63
2023/01/15 15:21:28;;;;;;;7.63;2.37;;;;;;;;;;4915142;29;20297;-63
2023/01/15 15:24:17;;;;;;;7.40;3.17;;;;;;;;;;4921403;29;20565;-60
2023/01/15 15:26:45;;;;;;;8.83;3.43;;;;;;;;;;4897970;29;20621;-62
2023/01/15 15:29:13;;;;;;;4.27;2.10;;;;;;;;;;4932861;29;20479;-61
2023/01/15 15:31:42;;;;;;;5.80;2.60;;;;;;;;;;4930876;29;20938;-62
2023/01/15 15:34:21;;;;;;;6.00;3.07;;;;;;;;;;4923185;29;20198;-62
2023/01/15 15:36:47;;;;;;;5.53;2.03;;;;;;;;;;4938670;29;20812;-62
2023/01/15 15:39:26;;;;;;;3.23;2.30;;;;;;;;;;4939677;28;20453;-62
2023/01/15 15:50:22;;;;;;;8.07;3.50;;;;;;;;;;4935463;29;20994;-62
2023/01/15 15:52:49;;;;;;;8.37;3.20;;;;;;;;;;4935729;28;20668;-62
2023/01/15 15:55:17;;;;;;;8.33;3.23;;;;;;;;;;4932277;29;20441;-62
2023/01/15 15:57:44;;;;;;;10.00;4.10;;;;;;;;;;4938754;29;20438;-63
2023/01/15 16:00:18;;;;;;;5.87;3.00;;;;;;;;;;4937854;28;20186;-62
2023/01/15 16:02:45;;;;;;;9.53;3.20;;;;;;;;;;4933294;29;20811;-63
2023/01/15 16:05:23;;;;;;;7.83;2.37;;;;;;;;;;4913255;29;20195;-62
2023/01/15 16:07:50;;;;;;;5.43;2.33;;;;;;;;;;4932645;29;20214;-61
2023/01/15 16:10:24;;;;;;;7.33;3.30;;;;;;;;;;4943674;28;20646;-63
2023/01/15 16:12:55;;;;;;;5.10;2.53;;;;;;;;;;4906873;29;20485;-62
2023/01/15 16:15:22;;;;;;;8.10;3.27;;;;;;;;;;4938391;28;20194;-62
2023/01/15 16:17:49;;;;;;;6.00;2.30;;;;;;;;;;4930572;29;20458;-62
2023/01/15 16:20:16;;;;;;;6.87;2.47;;;;;;;;;;4918310;29;21216;-61
2023/01/15 16:23:01;;;;;;;5.70;2.13;;;;;;;;;;4905034;28;20432;-63
2023/01/15 16:25:32;;;;;;;4.50;2.40;;;;;;;;;;4930939;29;20202;-63
2023/01/15 16:27:59;;;;;;;5.50;2.70;;;;;;;;;;4919037;29;20475;-62
2023/01/15 16:30:27;;;;;;;4.93;2.10;;;;;;;;;;4932907;28;20244;-64
2023/01/15 16:32:53;;;;;;;6.30;3.37;;;;;;;;;;4929386;29;20230;-62
2023/01/15 16:35:23;;;;;;;6.63;2.87;;;;;;;;;;4901484;29;20633;-63
2023/01/15 16:37:51;;;;;;;5.60;2.97;;;;;;;;;;4934975;29;20551;-63
2023/01/15 16:40:28;;;;;;;14.27;3.40;;;;;;;;;;4919851;29;20195;-64
2023/01/15 16:43:09;;;;;;;9.43;4.57;;;;;;;;;;4936754;29;20217;-65
2023/01/15 16:45:36;;;;;;;5.97;2.80;;;;;;;;;;4921519;29;20198;-63
2023/01/15 16:48:06;;;;;;;11.80;4.93;;;;;;;;;;4928451;29;20191;-63